Accueil
METAR-TAF:

METAR-TAF

Aéroports :

Aéroport de Doncaster-Sheffield Robin Hood

Doncaster, Angleterre

latitude: 53-29N, longitude: 001-00W, altitude: 17 m

Observation

Le bulletin a été fait il y a 22 minutes, à 11:20 UTC
Vent 8 kt de ouest
Température 6°C
Humidité 75%
Pression 1027 hPa
Visibilité 10 km ou plus
pas de nuages en-dessous de 1500 mètres et pas de cumulonimbus.

METAR: EGCN 181120Z 28008KT CAVOK 06/02 Q1027

Heure: 11:42 (11:42 UTC)

Prévision

Le bulletin a été fait il y a 44 minutes, à 10:58 UTC
Prévision valable du 18 à 12 UTC au 19 à 12 UTC
Vent 8 kt de ouest/nord-ouest
Visibilité 10 km ou plus
Quelques nuages à une hauteur de 3000 ft
Probabilité 30%
du 19 à 03 UTC au 19 à 09 UTC
Visibilité: 6000 m

TAF: EGCN 181058Z 1812/1912 29008KT 9999 FEW030 PROB30 1903/1909 6000

Observations et prévisions météorologiques de plus de 4000 aéroports (messages METAR et TAF).

Les stations disponibles sont représentées par des disques jaunes et rouges sur la carte.

Passer la souris dessus pour voir le nom de la station.

Cliquer dessus pour voir les observations et prévisions météorologiques.

Pour changer de carte: cliquez sur les boutons verts avec une croix noire pour zoomer, sur le bouton vert avec un tiret pour effectuer un zoom arrière, ou sur les flèches vertes pour les cartes adjacentes.


METAR-TAF: